createdAt,value
2023-09-25T00:00:41.806Z,2.30
2023-09-25T00:01:34.245Z,2.28
2023-09-25T00:02:25.813Z,2.07
2023-09-25T00:03:17.297Z,2.15
2023-09-25T00:04:09.038Z,2.18
2023-09-25T00:05:00.498Z,2.27
2023-09-25T00:05:52.065Z,2.62
2023-09-25T00:06:43.583Z,2.16
2023-09-25T00:07:35.108Z,2.06
2023-09-25T00:08:26.565Z,2.08
2023-09-25T00:09:18.101Z,1.99
2023-09-25T00:10:09.700Z,2.12
2023-09-25T00:11:01.839Z,1.93
2023-09-25T00:11:53.660Z,2.32
2023-09-25T00:12:45.640Z,2.36
2023-09-25T00:13:37.369Z,2.15
2023-09-25T00:14:30.318Z,2.24
2023-09-25T00:15:21.817Z,2.10
2023-09-25T00:16:17.919Z,1.84
2023-09-25T00:17:09.583Z,2.17
2023-09-25T00:18:01.177Z,2.21
2023-09-25T00:18:53.020Z,2.23
2023-09-25T00:19:44.844Z,1.90
2023-09-25T00:20:36.451Z,2.27
2023-09-25T00:21:28.015Z,1.95
2023-09-25T00:22:19.473Z,1.97
2023-09-25T00:23:10.925Z,2.19
2023-09-25T00:24:02.318Z,1.98
2023-09-25T00:24:53.763Z,2.49
2023-09-25T00:25:45.312Z,2.31
2023-09-25T00:26:36.696Z,2.52
2023-09-25T00:27:28.586Z,2.39
2023-09-25T00:28:20.087Z,2.29
2023-09-25T00:29:12.812Z,2.29
2023-09-25T00:30:07.394Z,2.16
2023-09-25T00:30:59.344Z,2.33
2023-09-25T00:31:50.786Z,2.30
2023-09-25T00:32:42.254Z,2.05
2023-09-25T00:33:34.000Z,2.26
2023-09-25T00:34:25.598Z,2.31
2023-09-25T00:35:20.925Z,2.28
2023-09-25T00:36:12.358Z,2.21
2023-09-25T00:37:03.814Z,2.21
2023-09-25T00:37:55.259Z,2.52
2023-09-25T00:38:46.693Z,2.23
2023-09-25T00:39:38.118Z,2.28
2023-09-25T00:40:30.114Z,2.29
2023-09-25T00:41:21.588Z,2.05
2023-09-25T00:42:13.080Z,2.18
2023-09-25T00:43:05.666Z,2.29
2023-09-25T00:43:57.157Z,2.28
2023-09-25T00:44:48.539Z,2.27
2023-09-25T00:45:43.018Z,2.54
2023-09-25T00:46:34.671Z,2.27
2023-09-25T00:47:26.166Z,2.15
2023-09-25T00:48:27.244Z,2.31
2023-09-25T00:49:19.311Z,2.20
2023-09-25T00:50:12.230Z,2.13
2023-09-25T00:51:05.777Z,2.38
2023-09-25T00:51:58.929Z,2.21
2023-09-25T00:52:50.785Z,2.09
2023-09-25T00:53:42.360Z,2.33
2023-09-25T00:54:41.228Z,2.18
2023-09-25T00:55:35.663Z,2.22
2023-09-25T00:56:27.152Z,2.17
2023-09-25T00:57:20.191Z,3.35
2023-09-25T00:58:12.389Z,4.14
2023-09-25T00:59:04.533Z,4.02
2023-09-25T00:59:56.902Z,3.67
2023-09-25T01:00:48.591Z,2.55
2023-09-25T01:01:41.269Z,2.83
2023-09-25T01:02:32.939Z,2.62
2023-09-25T01:03:24.438Z,2.61
2023-09-25T01:04:16.129Z,2.41
2023-09-25T01:05:11.720Z,2.26
2023-09-25T01:06:06.000Z,2.38
2023-09-25T01:06:58.294Z,2.31
2023-09-25T01:07:49.864Z,2.34
2023-09-25T01:08:42.056Z,2.12
2023-09-25T01:09:33.468Z,2.46
2023-09-25T01:10:27.474Z,2.68
2023-09-25T01:11:18.938Z,2.43
2023-09-25T01:12:10.358Z,2.37
2023-09-25T01:13:02.396Z,2.41
2023-09-25T01:13:53.892Z,2.63
2023-09-25T01:14:46.502Z,2.29
2023-09-25T01:15:40.095Z,2.25
2023-09-25T01:16:32.808Z,2.38
2023-09-25T01:17:25.391Z,2.46
2023-09-25T01:18:16.917Z,2.32
2023-09-25T01:19:08.325Z,2.24
2023-09-25T01:20:02.242Z,2.20
2023-09-25T01:20:54.468Z,2.22
2023-09-25T01:21:47.526Z,2.00
2023-09-25T01:22:41.017Z,2.04
2023-09-25T01:23:32.555Z,2.13
2023-09-25T01:24:24.053Z,2.21
2023-09-25T01:25:17.952Z,2.27
2023-09-25T01:26:09.531Z,2.19
2023-09-25T01:27:00.940Z,2.27
2023-09-25T01:27:52.397Z,2.14
2023-09-25T01:28:44.008Z,2.16
2023-09-25T01:29:35.422Z,2.15
2023-09-25T01:30:29.204Z,2.06
2023-09-25T01:31:20.814Z,2.13
2023-09-25T01:32:13.327Z,2.41
2023-09-25T01:33:05.406Z,2.48
2023-09-25T01:33:57.034Z,2.36
2023-09-25T01:34:48.471Z,2.15
2023-09-25T01:35:39.906Z,2.40
2023-09-25T01:36:31.457Z,2.31
2023-09-25T01:37:22.963Z,2.59
2023-09-25T01:38:14.834Z,2.49
2023-09-25T01:39:09.276Z,2.27
2023-09-25T01:40:01.045Z,2.27
2023-09-25T01:40:52.435Z,2.46
2023-09-25T01:41:43.862Z,2.23
2023-09-25T01:42:35.429Z,2.25
2023-09-25T01:43:26.838Z,2.70
2023-09-25T01:44:18.718Z,2.31
2023-09-25T01:45:11.396Z,2.27
2023-09-25T01:46:02.848Z,2.15
2023-09-25T01:46:54.293Z,2.34
2023-09-25T01:47:50.953Z,2.43
2023-09-25T01:48:42.596Z,2.42
2023-09-25T01:49:34.329Z,2.05
2023-09-25T01:50:28.418Z,2.10
2023-09-25T01:51:20.172Z,2.21
2023-09-25T01:52:13.536Z,2.20
2023-09-25T01:53:05.292Z,2.17
2023-09-25T01:53:57.217Z,2.41
2023-09-25T01:54:51.472Z,2.52
2023-09-25T01:55:44.162Z,2.10
2023-09-25T01:56:35.562Z,1.87
2023-09-25T01:57:27.087Z,2.15
2023-09-25T01:58:18.546Z,2.20
2023-09-25T01:59:10.144Z,2.36
2023-09-25T02:00:01.629Z,2.49
2023-09-25T02:01:03.466Z,2.13
2023-09-25T02:01:54.965Z,2.24
2023-09-25T02:02:47.839Z,2.13
2023-09-25T02:03:39.623Z,2.24
2023-09-25T02:04:31.256Z,2.27
2023-09-25T02:05:23.151Z,2.48
2023-09-25T02:06:14.702Z,2.76
2023-09-25T02:07:06.097Z,2.44
2023-09-25T02:07:58.263Z,2.29
2023-09-25T02:08:49.810Z,2.39
2023-09-25T02:09:41.468Z,2.10
2023-09-25T02:10:34.967Z,2.20
2023-09-25T02:11:26.710Z,2.21
2023-09-25T02:12:18.167Z,2.12
2023-09-25T02:13:10.394Z,2.19
2023-09-25T02:14:02.283Z,2.31
2023-09-25T02:14:58.248Z,2.04
2023-09-25T02:15:50.177Z,2.41
2023-09-25T02:16:42.104Z,1.92
2023-09-25T02:17:34.401Z,2.08
2023-09-25T02:18:25.817Z,2.33
2023-09-25T02:19:17.574Z,2.43
2023-09-25T02:20:18.832Z,2.25
2023-09-25T02:21:11.080Z,2.40
2023-09-25T02:22:02.591Z,2.48
2023-09-25T02:22:53.997Z,2.30
2023-09-25T02:23:45.549Z,2.53
2023-09-25T02:24:38.246Z,2.49
2023-09-25T02:25:29.816Z,2.32
2023-09-25T02:26:21.434Z,1.96
2023-09-25T02:27:12.982Z,2.23
2023-09-25T02:28:05.012Z,2.25
2023-09-25T02:28:56.438Z,2.28
2023-09-25T02:29:47.819Z,2.27
2023-09-25T02:30:39.429Z,2.13
2023-09-25T02:31:30.893Z,2.32
2023-09-25T02:32:22.375Z,2.35
2023-09-25T02:33:13.810Z,2.26
2023-09-25T02:34:05.231Z,2.24
2023-09-25T02:34:56.624Z,2.11
2023-09-25T02:35:48.071Z,2.00
2023-09-25T02:36:39.984Z,2.17
2023-09-25T02:37:34.715Z,2.49
2023-09-25T02:38:26.083Z,2.37
2023-09-25T02:39:17.856Z,2.42
2023-09-25T02:40:14.861Z,2.68
2023-09-25T02:41:08.780Z,2.37
2023-09-25T02:42:01.655Z,2.16
2023-09-25T02:42:53.188Z,2.14
2023-09-25T02:43:44.724Z,2.20
2023-09-25T02:44:36.948Z,2.12
2023-09-25T02:45:28.544Z,2.30
2023-09-25T02:46:20.279Z,2.28
2023-09-25T02:47:11.692Z,2.44
2023-09-25T02:48:03.451Z,2.31
2023-09-25T02:48:54.966Z,2.27
2023-09-25T02:49:46.456Z,2.24
2023-09-25T02:50:37.882Z,2.47
2023-09-25T02:51:29.400Z,2.35
2023-09-25T02:52:20.808Z,2.45
2023-09-25T02:53:12.268Z,2.34
2023-09-25T02:54:04.027Z,2.35
2023-09-25T02:54:55.578Z,2.46
2023-09-25T02:55:52.719Z,2.29
2023-09-25T02:56:44.162Z,2.37
2023-09-25T02:57:36.462Z,2.42
2023-09-25T02:58:28.171Z,2.50
2023-09-25T02:59:19.558Z,2.57
2023-09-25T03:00:12.584Z,2.47
2023-09-25T03:01:04.621Z,2.28
2023-09-25T03:01:56.397Z,2.25
2023-09-25T03:02:47.973Z,2.42
2023-09-25T03:03:40.451Z,2.28
2023-09-25T03:04:31.861Z,2.46
2023-09-25T03:05:23.376Z,2.44
2023-09-25T03:06:14.868Z,2.38
2023-09-25T03:07:06.308Z,2.46
2023-09-25T03:07:57.708Z,2.59
2023-09-25T03:08:50.364Z,2.38
2023-09-25T03:09:42.635Z,2.24
2023-09-25T03:10:34.380Z,2.47
2023-09-25T03:11:25.826Z,2.65
2023-09-25T03:12:17.333Z,2.49
2023-09-25T03:13:08.870Z,2.43
2023-09-25T03:14:00.332Z,2.39
2023-09-25T03:14:52.430Z,2.28
2023-09-25T03:15:45.148Z,2.43
2023-09-25T03:16:36.800Z,2.49
2023-09-25T03:17:28.221Z,2.54
2023-09-25T03:18:19.701Z,2.62
2023-09-25T03:19:11.913Z,2.56
2023-09-25T03:20:29.490Z,2.36
2023-09-25T03:21:21.427Z,2.39
2023-09-25T03:22:13.004Z,2.62
2023-09-25T03:23:04.437Z,2.51
2023-09-25T03:23:56.204Z,2.40
2023-09-25T03:24:49.553Z,2.62
2023-09-25T03:25:42.166Z,2.48
2023-09-25T03:26:33.617Z,2.74
2023-09-25T03:27:25.202Z,2.65
2023-09-25T03:28:16.696Z,2.00
2023-09-25T03:29:08.205Z,2.47
2023-09-25T03:29:59.607Z,2.34
2023-09-25T03:30:51.262Z,2.16
2023-09-25T03:31:42.985Z,2.43
2023-09-25T03:32:35.066Z,2.44
2023-09-25T03:33:28.753Z,2.41
2023-09-25T03:34:21.452Z,2.35
2023-09-25T03:35:14.861Z,2.30
2023-09-25T03:36:06.851Z,2.48
2023-09-25T03:36:58.448Z,2.46
2023-09-25T03:37:49.956Z,2.56
2023-09-25T03:38:41.613Z,2.69
2023-09-25T03:39:33.074Z,2.20
2023-09-25T03:40:24.863Z,2.31
2023-09-25T03:41:16.359Z,2.28
2023-09-25T03:42:07.791Z,2.22
2023-09-25T03:42:59.213Z,2.33
2023-09-25T03:43:52.925Z,2.57
2023-09-25T03:44:44.319Z,2.33
2023-09-25T03:45:35.805Z,2.38
2023-09-25T03:46:27.329Z,2.42
2023-09-25T03:47:20.179Z,2.65
2023-09-25T03:48:11.628Z,2.38
2023-09-25T03:49:06.867Z,2.73
2023-09-25T03:49:58.543Z,2.30
2023-09-25T03:50:50.876Z,2.64
2023-09-25T03:51:42.295Z,2.74
2023-09-25T03:52:33.786Z,2.71
2023-09-25T03:53:25.209Z,2.83
2023-09-25T03:54:16.637Z,2.47
2023-09-25T03:55:08.535Z,2.87
2023-09-25T03:55:59.977Z,2.62
2023-09-25T03:56:51.380Z,2.55
2023-09-25T03:57:42.859Z,2.60
2023-09-25T03:58:34.351Z,2.82
2023-09-25T03:59:25.841Z,2.43
2023-09-25T04:00:17.683Z,2.73
2023-09-25T04:01:09.134Z,2.56
2023-09-25T04:02:00.629Z,2.64
2023-09-25T04:02:52.272Z,2.77
2023-09-25T04:03:43.939Z,2.63
2023-09-25T04:04:35.485Z,2.68
2023-09-25T04:05:27.465Z,2.71
2023-09-25T04:06:19.527Z,2.86
2023-09-25T04:07:11.169Z,2.89
2023-09-25T04:08:02.778Z,2.72
2023-09-25T04:08:54.221Z,2.73
2023-09-25T04:09:45.676Z,2.61
2023-09-25T04:10:37.116Z,2.99
2023-09-25T04:11:28.544Z,3.05
2023-09-25T04:12:20.141Z,3.22
2023-09-25T04:13:12.154Z,2.82
2023-09-25T04:14:03.871Z,2.89
2023-09-25T04:14:55.418Z,2.61
2023-09-25T04:15:46.919Z,2.72
2023-09-25T04:16:39.940Z,2.71
2023-09-25T04:17:34.294Z,2.67
2023-09-25T04:18:25.832Z,2.68
2023-09-25T04:19:17.438Z,2.68
2023-09-25T04:20:15.926Z,2.58
2023-09-25T04:21:07.442Z,2.52
2023-09-25T04:22:00.376Z,2.91
2023-09-25T04:22:53.729Z,2.63
2023-09-25T04:23:45.253Z,2.62
2023-09-25T04:24:39.592Z,2.38
2023-09-25T04:25:31.030Z,2.76
2023-09-25T04:26:24.578Z,2.86
2023-09-25T04:27:16.637Z,2.74
2023-09-25T04:28:08.183Z,2.83
2023-09-25T04:28:59.575Z,2.87
2023-09-25T04:29:51.781Z,2.77
2023-09-25T04:30:43.343Z,2.53
2023-09-25T04:31:34.750Z,2.67
2023-09-25T04:32:27.594Z,2.90
2023-09-25T04:33:19.063Z,2.81
2023-09-25T04:34:11.340Z,2.78
2023-09-25T04:35:02.975Z,2.88
2023-09-25T04:35:59.861Z,2.89
2023-09-25T04:36:52.532Z,2.97
2023-09-25T04:37:44.114Z,3.12
2023-09-25T04:38:36.281Z,3.09
2023-09-25T04:39:27.991Z,2.56
2023-09-25T04:40:31.257Z,2.84
2023-09-25T04:41:22.674Z,2.81
2023-09-25T04:42:14.084Z,2.84
2023-09-25T04:43:05.462Z,2.94
2023-09-25T04:43:56.848Z,2.86
2023-09-25T04:44:49.540Z,2.78
2023-09-25T04:45:41.121Z,2.92
2023-09-25T04:46:32.672Z,2.97
2023-09-25T04:47:24.142Z,2.94
2023-09-25T04:48:15.674Z,2.70
2023-09-25T04:49:07.677Z,2.89
2023-09-25T04:49:59.242Z,2.90
2023-09-25T04:50:51.439Z,2.92
2023-09-25T04:51:42.872Z,2.94
2023-09-25T04:52:34.265Z,3.19
2023-09-25T04:53:25.848Z,2.92
2023-09-25T04:54:17.924Z,2.85
2023-09-25T04:55:12.357Z,2.65
2023-09-25T04:56:03.886Z,2.83
2023-09-25T04:56:55.244Z,2.65
2023-09-25T04:57:48.332Z,2.80
2023-09-25T04:58:39.982Z,2.73
2023-09-25T04:59:31.467Z,2.70
2023-09-25T05:00:23.248Z,2.84
2023-09-25T05:01:15.331Z,3.11
2023-09-25T05:02:06.777Z,3.12
2023-09-25T05:02:58.325Z,3.22
2023-09-25T05:03:49.871Z,2.92
2023-09-25T05:04:41.304Z,2.55
2023-09-25T05:05:33.098Z,2.84
2023-09-25T05:06:24.704Z,3.02
2023-09-25T05:07:16.124Z,2.86
2023-09-25T05:08:07.590Z,2.75
2023-09-25T05:08:59.031Z,2.61
2023-09-25T05:09:50.872Z,2.66
2023-09-25T05:10:42.401Z,2.87
2023-09-25T05:11:33.818Z,2.59
2023-09-25T05:12:25.328Z,2.56
2023-09-25T05:13:16.803Z,2.87
2023-09-25T05:14:08.235Z,2.97
2023-09-25T05:14:59.607Z,2.64
2023-09-25T05:15:51.223Z,2.77
2023-09-25T05:16:42.737Z,2.83
2023-09-25T05:17:39.081Z,2.96
2023-09-25T05:18:30.818Z,2.86
2023-09-25T05:19:22.711Z,2.95
2023-09-25T05:20:19.286Z,2.84
2023-09-25T05:21:10.722Z,2.70
2023-09-25T05:22:02.159Z,3.24
2023-09-25T05:22:56.229Z,2.95
2023-09-25T05:23:47.734Z,2.78
2023-09-25T05:24:39.202Z,2.96
2023-09-25T05:25:30.638Z,3.00
2023-09-25T05:26:22.096Z,2.92
2023-09-25T05:27:13.563Z,2.98
2023-09-25T05:28:06.179Z,2.71
2023-09-25T05:28:58.580Z,3.00
2023-09-25T05:29:51.705Z,2.61
2023-09-25T05:30:43.151Z,3.05
2023-09-25T05:31:34.862Z,2.93
2023-09-25T05:32:26.456Z,3.23
2023-09-25T05:33:17.902Z,2.91
2023-09-25T05:34:09.348Z,3.03
2023-09-25T05:35:01.015Z,3.08
2023-09-25T05:35:52.851Z,2.57
2023-09-25T05:36:44.511Z,2.92
2023-09-25T05:37:37.338Z,3.25
2023-09-25T05:38:29.202Z,2.85
2023-09-25T05:39:25.379Z,2.95
2023-09-25T05:40:18.981Z,3.05
2023-09-25T05:41:10.620Z,2.97
2023-09-25T05:42:02.797Z,2.96
2023-09-25T05:42:54.243Z,2.92
2023-09-25T05:43:45.664Z,3.14
2023-09-25T05:44:37.086Z,2.93
2023-09-25T05:45:28.513Z,3.00
2023-09-25T05:46:19.916Z,3.16
2023-09-25T05:47:11.446Z,3.20
2023-09-25T05:48:03.490Z,3.15
2023-09-25T05:48:58.536Z,3.04
2023-09-25T05:49:50.743Z,3.20
2023-09-25T05:50:42.302Z,3.00
2023-09-25T05:51:34.947Z,3.17
2023-09-25T05:52:26.394Z,3.06
2023-09-25T05:53:18.505Z,2.81
2023-09-25T05:54:09.924Z,3.14
2023-09-25T05:55:01.650Z,2.98
2023-09-25T05:55:53.147Z,2.99
2023-09-25T05:56:45.416Z,3.06
2023-09-25T05:57:37.272Z,2.80
2023-09-25T05:58:28.748Z,3.08
2023-09-25T05:59:20.141Z,2.94
2023-09-25T06:00:14.941Z,2.66
2023-09-25T06:01:06.691Z,2.79
2023-09-25T06:01:58.366Z,2.76
2023-09-25T06:02:49.900Z,3.06
2023-09-25T06:03:41.599Z,3.13
2023-09-25T06:04:37.413Z,3.28
2023-09-25T06:05:29.096Z,3.03
2023-09-25T06:06:21.223Z,2.65
2023-09-25T06:07:13.994Z,3.13
2023-09-25T06:08:07.129Z,3.19
2023-09-25T06:09:00.247Z,3.00
2023-09-25T06:09:51.721Z,2.78
2023-09-25T06:10:45.120Z,2.57
2023-09-25T06:11:38.226Z,2.91
2023-09-25T06:12:29.694Z,2.89
2023-09-25T06:13:21.106Z,2.75
2023-09-25T06:14:12.502Z,2.82
2023-09-25T06:15:10.313Z,2.84
2023-09-25T06:16:02.008Z,2.71
2023-09-25T06:16:56.096Z,2.78
2023-09-25T06:17:48.250Z,2.56
2023-09-25T06:18:39.743Z,3.02
2023-09-25T06:19:32.486Z,2.66
2023-09-25T06:20:26.037Z,2.70
2023-09-25T06:21:18.293Z,2.88
2023-09-25T06:22:09.741Z,2.75
2023-09-25T06:23:01.992Z,2.53
2023-09-25T06:23:53.796Z,2.46
2023-09-25T06:24:45.205Z,2.75
2023-09-25T06:25:38.905Z,2.63
2023-09-25T06:26:30.469Z,2.94
2023-09-25T06:27:21.844Z,2.65
2023-09-25T06:28:15.722Z,2.94
2023-09-25T06:29:09.555Z,2.83
2023-09-25T06:30:01.007Z,2.62
2023-09-25T06:30:52.473Z,2.63
2023-09-25T06:31:59.622Z,2.93
2023-09-25T06:32:52.771Z,2.95
2023-09-25T06:33:44.359Z,2.71
2023-09-25T06:34:36.066Z,2.44
2023-09-25T06:35:27.626Z,2.79
2023-09-25T06:36:19.047Z,2.47
2023-09-25T06:37:10.448Z,2.51
2023-09-25T06:38:02.028Z,2.40
2023-09-25T06:38:53.807Z,2.73
2023-09-25T06:39:45.376Z,2.56
2023-09-25T06:40:37.398Z,2.78
2023-09-25T06:41:28.770Z,2.79
2023-09-25T06:42:20.345Z,2.90
2023-09-25T06:43:11.967Z,2.57
2023-09-25T06:44:05.945Z,2.32
2023-09-25T06:44:58.021Z,2.40
2023-09-25T06:45:49.723Z,2.40
2023-09-25T06:46:41.730Z,2.61
2023-09-25T06:47:33.533Z,2.57
2023-09-25T06:48:25.241Z,2.76
2023-09-25T06:49:18.070Z,2.46
2023-09-25T06:50:09.918Z,2.31
2023-09-25T06:51:02.078Z,2.56
2023-09-25T06:51:53.509Z,2.40
2023-09-25T06:52:44.953Z,2.49
2023-09-25T06:53:36.402Z,2.45
2023-09-25T06:54:27.837Z,2.25
2023-09-25T06:55:19.270Z,2.19
2023-09-25T06:56:11.410Z,2.38
2023-09-25T06:57:02.842Z,2.49
2023-09-25T06:57:54.532Z,2.48
2023-09-25T06:58:46.089Z,2.14
2023-09-25T06:59:38.644Z,2.39
2023-09-25T07:00:39.137Z,2.34
2023-09-25T07:01:37.937Z,2.52
2023-09-25T07:02:29.501Z,2.23
2023-09-25T07:03:21.038Z,2.13
2023-09-25T07:04:12.999Z,2.24
2023-09-25T07:05:05.354Z,2.34
2023-09-25T07:05:57.423Z,2.23
2023-09-25T07:06:50.500Z,2.34
2023-09-25T07:07:41.953Z,2.39
2023-09-25T07:08:33.454Z,2.29
2023-09-25T07:09:24.985Z,2.52
2023-09-25T07:10:16.388Z,2.66
2023-09-25T07:11:08.803Z,2.53
2023-09-25T07:12:00.593Z,2.39
2023-09-25T07:12:52.933Z,2.68
2023-09-25T07:13:44.418Z,2.38
2023-09-25T07:14:36.677Z,2.25
2023-09-25T07:15:28.136Z,2.36
2023-09-25T07:16:19.722Z,2.44
2023-09-25T07:17:11.905Z,2.41
2023-09-25T07:18:03.608Z,2.67
2023-09-25T07:18:55.312Z,2.25
2023-09-25T07:19:50.359Z,2.03
2023-09-25T07:20:41.736Z,2.05
2023-09-25T07:21:33.263Z,2.26
2023-09-25T07:22:29.185Z,2.14
2023-09-25T07:23:21.144Z,2.59
2023-09-25T07:24:12.585Z,2.67
2023-09-25T07:25:05.011Z,2.54
2023-09-25T07:26:03.634Z,2.43
2023-09-25T07:26:55.013Z,2.42
2023-09-25T07:27:46.920Z,2.19
2023-09-25T07:28:38.554Z,2.34
2023-09-25T07:29:41.360Z,2.11
2023-09-25T07:30:33.852Z,2.11
2023-09-25T07:31:25.489Z,1.73
2023-09-25T07:32:17.008Z,2.06
2023-09-25T07:33:08.709Z,2.19
2023-09-25T07:34:00.203Z,2.22
2023-09-25T07:34:52.946Z,2.24
2023-09-25T07:35:44.574Z,2.17
2023-09-25T07:36:36.018Z,2.21
2023-09-25T07:37:27.546Z,2.08
2023-09-25T07:38:18.974Z,2.14
2023-09-25T07:39:14.383Z,2.04
2023-09-25T07:40:11.383Z,2.12
2023-09-25T07:41:03.357Z,2.04
2023-09-25T07:41:54.857Z,2.13
2023-09-25T07:42:46.359Z,2.06
2023-09-25T07:43:51.198Z,1.87
2023-09-25T07:44:49.593Z,2.01
2023-09-25T07:45:40.997Z,2.10
2023-09-25T07:46:32.552Z,1.86
2023-09-25T07:47:24.676Z,2.06
2023-09-25T07:48:17.931Z,1.91
2023-09-25T07:49:09.443Z,1.84
2023-09-25T07:50:00.944Z,2.00
2023-09-25T07:50:56.668Z,2.13
2023-09-25T07:51:48.297Z,1.94
2023-09-25T07:52:41.074Z,2.09
2023-09-25T07:53:32.724Z,2.05
2023-09-25T07:54:24.292Z,1.97
2023-09-25T07:55:17.017Z,1.75
2023-09-25T07:56:08.460Z,2.24
2023-09-25T07:56:59.836Z,2.31
2023-09-25T07:57:51.766Z,2.14
2023-09-25T07:58:43.356Z,2.02
2023-09-25T07:59:34.925Z,2.12
2023-09-25T08:00:26.929Z,2.04
2023-09-25T08:01:18.532Z,1.97
2023-09-25T08:02:12.467Z,1.96
2023-09-25T08:03:06.645Z,2.07
2023-09-25T08:03:59.294Z,1.91
2023-09-25T08:04:50.941Z,2.03
2023-09-25T08:05:43.494Z,2.18
2023-09-25T08:06:35.081Z,2.03
2023-09-25T08:07:26.508Z,1.90
2023-09-25T08:08:17.900Z,2.00
2023-09-25T08:09:09.332Z,2.04
2023-09-25T08:10:01.331Z,2.08
2023-09-25T08:10:52.966Z,2.16
2023-09-25T08:11:44.351Z,1.99
2023-09-25T08:12:35.782Z,2.06
2023-09-25T08:13:27.226Z,2.08
2023-09-25T08:14:18.728Z,1.87
2023-09-25T08:15:11.272Z,2.21
2023-09-25T08:16:07.008Z,1.97
2023-09-25T08:16:59.019Z,1.88
2023-09-25T08:17:50.952Z,2.02
2023-09-25T08:18:42.469Z,2.05
2023-09-25T08:19:33.846Z,2.15
2023-09-25T08:20:27.128Z,2.00
2023-09-25T08:21:18.660Z,1.90
2023-09-25T08:22:11.297Z,2.07
2023-09-25T08:23:02.740Z,2.09
2023-09-25T08:23:54.128Z,2.12
2023-09-25T08:24:45.578Z,1.94
2023-09-25T08:25:37.089Z,2.01
2023-09-25T08:26:28.522Z,1.89
2023-09-25T08:27:21.905Z,2.01
2023-09-25T08:28:15.063Z,2.13
2023-09-25T08:29:08.738Z,2.08
2023-09-25T08:30:00.400Z,2.00
2023-09-25T08:30:51.912Z,1.82
2023-09-25T08:31:45.073Z,1.60
2023-09-25T08:32:37.003Z,1.71
2023-09-25T08:33:28.737Z,1.82
2023-09-25T08:34:20.195Z,1.86
2023-09-25T08:35:12.263Z,2.05
2023-09-25T08:36:03.859Z,2.02
2023-09-25T08:36:55.431Z,1.79
2023-09-25T08:37:47.064Z,1.83
2023-09-25T08:38:38.506Z,1.95
2023-09-25T08:39:30.029Z,1.89
2023-09-25T08:40:21.603Z,1.87
2023-09-25T08:41:15.648Z,1.96
2023-09-25T08:42:07.507Z,2.12
2023-09-25T08:43:13.303Z,2.02
2023-09-25T08:44:11.034Z,2.07
2023-09-25T08:45:04.842Z,1.74
2023-09-25T08:45:56.621Z,2.03
2023-09-25T08:46:48.928Z,1.88
2023-09-25T08:47:43.992Z,2.03
2023-09-25T08:48:36.360Z,2.01
2023-09-25T08:49:32.801Z,1.92
2023-09-25T08:50:24.379Z,1.87
2023-09-25T08:51:16.668Z,2.10
2023-09-25T08:52:08.106Z,1.89
2023-09-25T08:52:59.707Z,2.25
2023-09-25T08:53:52.725Z,2.01
2023-09-25T08:54:46.023Z,1.99
2023-09-25T08:55:39.093Z,2.07
2023-09-25T08:56:34.092Z,2.01
2023-09-25T08:57:25.810Z,1.93
2023-09-25T08:58:18.149Z,1.95
2023-09-25T08:59:12.341Z,2.15
2023-09-25T09:00:15.969Z,1.89
2023-09-25T09:01:07.902Z,2.04
2023-09-25T09:01:59.921Z,1.83
2023-09-25T09:02:51.351Z,2.17
2023-09-25T09:03:43.184Z,1.89
2023-09-25T09:04:34.838Z,2.00
2023-09-25T09:05:26.394Z,2.18
2023-09-25T09:06:18.510Z,2.10
2023-09-25T09:07:11.609Z,1.87
2023-09-25T09:08:09.397Z,2.11
2023-09-25T09:09:01.059Z,1.88
2023-09-25T09:09:52.645Z,1.81
2023-09-25T09:10:44.506Z,1.84
2023-09-25T09:11:37.036Z,1.84
2023-09-25T09:12:28.498Z,1.98
2023-09-25T09:13:23.294Z,2.00
2023-09-25T09:14:14.777Z,1.97
2023-09-25T09:15:24.560Z,1.95
2023-09-25T09:16:18.573Z,2.06
2023-09-25T09:17:12.207Z,1.82
2023-09-25T09:18:26.452Z,1.95
2023-09-25T09:19:19.572Z,1.83
2023-09-25T09:20:12.876Z,2.02
2023-09-25T09:21:04.329Z,1.98
2023-09-25T09:22:07.544Z,1.89
2023-09-25T09:22:59.023Z,1.80
2023-09-25T09:23:50.645Z,1.87
2023-09-25T09:24:44.168Z,1.97
2023-09-25T09:25:36.286Z,1.81
2023-09-25T09:26:29.034Z,2.21
2023-09-25T09:27:21.648Z,2.03
2023-09-25T09:28:13.315Z,2.05
2023-09-25T09:29:04.733Z,2.10
2023-09-25T09:29:58.218Z,1.81
2023-09-25T09:30:49.820Z,2.02
2023-09-25T09:31:42.253Z,2.04
2023-09-25T09:32:35.193Z,2.05
2023-09-25T09:33:30.743Z,2.12
2023-09-25T09:34:25.995Z,1.95
2023-09-25T09:35:25.990Z,2.02
2023-09-25T09:36:20.913Z,2.03
2023-09-25T09:37:15.432Z,2.07
2023-09-25T09:38:08.792Z,1.85
2023-09-25T09:39:02.165Z,2.16
2023-09-25T09:39:57.697Z,1.79
2023-09-25T09:40:50.921Z,1.84
2023-09-25T09:41:45.427Z,1.76
2023-09-25T09:42:37.917Z,1.90
2023-09-25T09:43:29.479Z,1.85
2023-09-25T09:44:21.385Z,1.94
2023-09-25T09:45:13.062Z,1.76
2023-09-25T09:46:05.706Z,1.87
2023-09-25T09:46:58.038Z,1.83
2023-09-25T09:47:52.234Z,1.94
2023-09-25T09:48:47.537Z,1.89
2023-09-25T09:49:40.652Z,1.85
2023-09-25T09:50:35.297Z,1.80
2023-09-25T09:51:29.152Z,1.70
2023-09-25T09:52:21.202Z,2.17
2023-09-25T09:53:18.187Z,2.07
2023-09-25T09:54:12.876Z,2.03
2023-09-25T09:55:09.037Z,2.04
2023-09-25T09:56:02.376Z,2.00
2023-09-25T09:56:56.127Z,1.78
2023-09-25T09:57:49.410Z,1.67
2023-09-25T09:58:42.315Z,1.90
2023-09-25T09:59:33.859Z,1.82
2023-09-25T10:00:25.461Z,1.97
2023-09-25T10:01:18.321Z,1.85
2023-09-25T10:02:10.691Z,1.69
2023-09-25T10:03:03.659Z,1.67
2023-09-25T10:03:56.867Z,1.53
2023-09-25T10:04:49.619Z,1.63
2023-09-25T10:05:51.681Z,1.64
2023-09-25T10:06:53.271Z,1.99
2023-09-25T10:08:17.456Z,1.75
2023-09-25T10:09:11.821Z,1.94
2023-09-25T10:10:07.615Z,1.79
2023-09-25T10:11:24.299Z,1.76
2023-09-25T10:12:38.681Z,1.82
2023-09-25T10:13:30.897Z,1.85
2023-09-25T10:14:25.047Z,1.73
2023-09-25T10:15:26.594Z,2.07
2023-09-25T10:16:18.257Z,1.96
2023-09-25T10:17:09.806Z,1.73
2023-09-25T10:18:01.635Z,1.60
2023-09-25T10:18:53.614Z,2.05
2023-09-25T10:19:53.765Z,1.81
2023-09-25T10:20:46.697Z,1.62
2023-09-25T10:21:38.310Z,1.53
2023-09-25T10:22:31.653Z,1.73
2023-09-25T10:23:26.362Z,1.96
2023-09-25T10:24:27.184Z,1.78
2023-09-25T10:25:18.708Z,1.86
2023-09-25T10:26:18.266Z,1.90
2023-09-25T10:27:16.010Z,1.81
2023-09-25T10:28:22.839Z,2.21
2023-09-25T10:29:16.850Z,2.11
2023-09-25T10:30:12.846Z,2.09
2023-09-25T10:31:20.133Z,1.98
2023-09-25T10:32:15.670Z,1.90
2023-09-25T10:33:07.196Z,1.80
2023-09-25T10:34:01.710Z,1.67
2023-09-25T10:34:53.553Z,1.49
2023-09-25T10:35:50.175Z,2.09
2023-09-25T10:36:45.445Z,2.20
2023-09-25T10:37:37.366Z,1.99
2023-09-25T10:38:32.946Z,2.01
2023-09-25T10:39:29.486Z,1.85
2023-09-25T10:40:21.984Z,1.86
2023-09-25T10:41:15.272Z,1.52
2023-09-25T10:42:08.516Z,1.70
2023-09-25T10:43:00.391Z,1.60
2023-09-25T10:43:52.294Z,1.65
2023-09-25T10:44:45.246Z,1.83
2023-09-25T10:45:39.273Z,1.71
2023-09-25T10:46:31.949Z,1.93
2023-09-25T10:47:23.522Z,2.00
2023-09-25T10:48:15.601Z,1.84
2023-09-25T10:49:07.745Z,1.70
2023-09-25T10:49:59.317Z,1.97
2023-09-25T10:50:51.070Z,2.06
2023-09-25T10:51:42.635Z,1.88
2023-09-25T10:52:35.953Z,1.76
2023-09-25T10:53:28.622Z,1.88
2023-09-25T10:54:20.185Z,2.01
2023-09-25T10:55:12.038Z,1.88
2023-09-25T10:56:03.738Z,1.83
2023-09-25T10:56:55.408Z,1.94
2023-09-25T10:57:48.613Z,1.72
2023-09-25T10:58:41.578Z,1.77
2023-09-25T10:59:35.070Z,1.82
2023-09-25T11:00:27.806Z,1.67
2023-09-25T11:01:30.329Z,1.57
2023-09-25T11:02:21.994Z,1.74
2023-09-25T11:03:13.637Z,1.59
2023-09-25T11:04:05.438Z,1.78
2023-09-25T11:04:57.107Z,1.88
2023-09-25T11:05:49.404Z,1.66
2023-09-25T11:06:41.262Z,2.02
2023-09-25T11:07:33.247Z,2.14
2023-09-25T11:08:27.150Z,1.93
2023-09-25T11:09:19.669Z,1.80
2023-09-25T11:10:14.574Z,1.91
2023-09-25T11:11:07.495Z,1.66
2023-09-25T11:12:01.225Z,1.66
2023-09-25T11:12:53.306Z,1.57
2023-09-25T11:13:44.789Z,1.63
2023-09-25T11:14:39.416Z,1.88
2023-09-25T11:15:38.506Z,1.63
2023-09-25T11:16:30.370Z,1.82
2023-09-25T11:17:22.057Z,1.78
2023-09-25T11:18:14.213Z,1.54
2023-09-25T11:19:16.408Z,1.54
2023-09-25T11:20:20.666Z,1.78
2023-09-25T11:21:12.639Z,1.81
2023-09-25T11:22:04.542Z,1.51
2023-09-25T11:24:08.560Z,1.81
2023-09-25T11:25:00.113Z,1.49
2023-09-25T11:25:53.429Z,1.67
2023-09-25T11:26:45.011Z,1.72
2023-09-25T11:27:36.492Z,1.77
2023-09-25T11:28:31.638Z,1.86
2023-09-25T11:29:31.452Z,1.56
2023-09-25T11:30:30.760Z,1.98
2023-09-25T11:31:22.568Z,1.69
2023-09-25T11:32:14.423Z,1.69
2023-09-25T11:33:08.069Z,1.83
2023-09-25T11:33:59.699Z,1.60
2023-09-25T11:34:52.464Z,1.59
2023-09-25T11:35:44.135Z,1.73
2023-09-25T11:36:35.869Z,1.96
2023-09-25T11:37:28.205Z,1.75
2023-09-25T11:38:23.413Z,1.61
2023-09-25T11:39:16.454Z,1.67
2023-09-25T11:40:08.730Z,1.55
2023-09-25T11:41:06.519Z,1.47
2023-09-25T11:41:57.994Z,1.63
2023-09-25T11:42:49.487Z,1.42
2023-09-25T11:43:41.021Z,1.48
2023-09-25T11:44:32.603Z,1.64